Time;durP1;ratioP1;P1;durP2;ratioP2;P2;SDS_P1;SDS_P2;PMS_P1;PMS_P2;Temp;Humidity;BMP_temperature;BMP_pressure;BME280_temperature;BME280_humidity;BME280_pressure;Samples;Min_cycle;Max_cycle;Signal;HPM_P1;HPM_P2
2023/05/09 05:03:40;;;;;;;30.67;19.85;;;14.20;99.90;;;;;;4904484;23;20048;-71
2023/05/09 05:06:07;;;;;;;28.90;19.33;;;14.30;99.90;;;;;;4884064;29;20037;-78
2023/05/09 05:08:34;;;;;;;29.05;20.00;;;14.40;99.90;;;;;;4870549;29;20045;-71
2023/05/09 05:11:00;;;;;;;28.77;19.13;;;14.50;99.90;;;;;;4894511;29;20047;-72
2023/05/09 05:13:26;;;;;;;26.75;19.52;;;14.50;99.90;;;;;;4872356;29;20033;-73
2023/05/09 05:15:57;;;;;;;26.67;19.15;;;14.60;99.90;;;;;;4857804;29;20047;-74
2023/05/09 05:18:23;;;;;;;26.17;18.67;;;14.60;99.90;;;;;;4893601;29;20028;-73
2023/05/09 05:20:48;;;;;;;26.83;18.83;;;14.60;99.90;;;;;;4894739;29;20164;-73
2023/05/09 05:23:15;;;;;;;29.45;19.40;;;14.60;99.90;;;;;;4883060;29;20366;-72
2023/05/09 05:25:41;;;;;;;25.63;19.35;;;14.70;99.90;;;;;;4872601;29;20041;-72
2023/05/09 05:28:06;;;;;;;25.27;19.52;;;14.70;99.90;;;;;;4889247;29;20040;-72
2023/05/09 05:30:32;;;;;;;25.48;18.63;;;14.80;99.90;;;;;;4871621;29;20052;-72
2023/05/09 05:32:58;;;;;;;26.05;18.73;;;15.00;99.90;;;;;;4872333;29;20033;-75
2023/05/09 05:35:27;;;;;;;26.38;18.83;;;15.00;99.90;;;;;;4876487;29;20096;-72
2023/05/09 05:37:53;;;;;;;25.40;18.15;;;15.00;99.90;;;;;;4890875;29;20188;-72
2023/05/09 05:40:20;;;;;;;28.05;19.15;;;15.10;99.90;;;;;;4879374;29;20037;-72
2023/05/09 05:42:47;;;;;;;25.45;18.38;;;15.20;99.90;;;;;;4872261;29;20095;-71
2023/05/09 05:45:13;;;;;;;26.60;18.88;;;15.30;99.90;;;;;;4888380;29;20048;-71
2023/05/09 05:47:42;;;;;;;25.02;18.98;;;15.20;99.90;;;;;;4872322;29;20256;-71
2023/05/09 05:50:10;;;;;;;26.70;19.48;;;15.20;99.90;;;;;;4889007;29;20100;-72
2023/05/09 05:52:38;;;;;;;27.58;19.10;;;15.20;99.90;;;;;;4888129;29;20033;-72
2023/05/09 05:55:05;;;;;;;28.63;18.75;;;15.20;99.90;;;;;;4872315;29;20335;-73
2023/05/09 05:57:31;;;;;;;31.88;20.45;;;15.20;99.90;;;;;;4888195;29;20057;-72
2023/05/09 05:59:57;;;;;;;33.20;18.85;;;15.40;99.90;;;;;;4880983;29;20055;-72
2023/05/09 06:02:23;;;;;;;26.83;19.60;;;15.40;99.90;;;;;;4884235;29;20045;-72
2023/05/09 06:04:48;;;;;;;29.80;20.42;;;15.40;99.90;;;;;;4888920;29;20037;-74
2023/05/09 06:07:15;;;;;;;27.30;18.85;;;15.30;99.90;;;;;;4871609;29;20072;-74
2023/05/09 06:09:40;;;;;;;27.55;19.38;;;15.40;99.90;;;;;;4888995;29;20037;-74
2023/05/09 06:12:09;;;;;;;;;;;15.40;99.90;;;;;;4881687;29;20026;-74
2023/05/09 06:14:35;;;;;;;24.40;17.75;;;15.50;99.90;;;;;;4871392;29;19943;-74
2023/05/09 06:17:01;;;;;;;24.70;18.25;;;15.70;99.90;;;;;;4888232;29;20069;-73
2023/05/09 06:19:28;;;;;;;27.25;18.88;;;15.90;99.90;;;;;;4879219;29;20222;-74
2023/05/09 06:21:53;;;;;;;25.40;18.02;;;16.00;99.90;;;;;;4888806;29;20021;-73
2023/05/09 06:24:19;;;;;;;23.73;17.40;;;16.30;99.90;;;;;;4871620;29;20031;-73
2023/05/09 06:26:46;;;;;;;23.58;17.77;;;16.50;99.90;;;;;;4871920;29;20037;-72
2023/05/09 06:29:14;;;;;;;24.27;18.05;;;16.70;99.90;;;;;;4871165;29;20029;-74
2023/05/09 06:31:40;;;;;;;25.60;18.17;;;16.80;99.90;;;;;;4871832;29;20037;-74
2023/05/09 06:34:06;;;;;;;23.30;17.23;;;16.90;99.90;;;;;;4888488;29;20097;-74
2023/05/09 06:36:32;;;;;;;22.65;16.85;;;17.00;99.90;;;;;;4887713;29;20037;-73
2023/05/09 06:38:58;;;;;;;21.63;16.20;;;17.00;99.90;;;;;;4887968;29;20088;-73
2023/05/09 06:41:24;;;;;;;23.75;15.88;;;16.90;99.90;;;;;;4887805;29;20044;-74
2023/05/09 06:43:49;;;;;;;21.25;16.50;;;17.00;99.90;;;;;;4871591;29;20033;-74
2023/05/09 06:46:15;;;;;;;25.15;18.13;;;16.90;99.90;;;;;;4887907;29;20040;-74
2023/05/09 06:48:41;;;;;;;23.48;17.63;;;16.80;99.90;;;;;;4888137;29;20045;-74
2023/05/09 06:51:07;;;;;;;25.02;17.52;;;16.90;99.90;;;;;;4881443;29;20036;-72
2023/05/09 06:53:32;;;;;;;25.05;17.67;;;17.00;99.90;;;;;;4869323;29;20034;-73
2023/05/09 06:55:58;;;;;;;24.80;18.00;;;16.90;99.90;;;;;;4869806;29;20033;-73
2023/05/09 06:58:24;;;;;;;20.00;16.13;;;17.00;99.90;;;;;;4881316;29;20049;-72
2023/05/09 07:00:50;;;;;;;22.20;16.80;;;17.10;99.90;;;;;;4870633;29;20057;-73
2023/05/09 07:03:16;;;;;;;21.63;16.83;;;17.20;99.90;;;;;;4869612;29;20082;-72
2023/05/09 07:05:41;;;;;;;20.67;16.23;;;17.30;99.90;;;;;;4872357;29;20217;-73
2023/05/09 07:08:07;;;;;;;21.75;15.95;;;17.50;99.90;;;;;;4872382;29;20085;-72
2023/05/09 07:10:33;;;;;;;24.33;16.30;;;17.80;99.90;;;;;;4884971;29;20044;-71
2023/05/09 07:12:59;;;;;;;22.40;16.40;;;18.10;99.90;;;;;;4872943;29;20088;-72
2023/05/09 07:15:24;;;;;;;22.48;15.85;;;18.40;99.90;;;;;;4871894;29;20260;-72
2023/05/09 07:17:51;;;;;;;24.55;17.27;;;18.70;99.90;;;;;;4872458;29;20026;-72
2023/05/09 07:20:17;;;;;;;19.75;16.08;;;18.90;99.90;;;;;;4888046;29;20096;-72
2023/05/09 07:22:43;;;;;;;18.45;14.52;;;18.90;99.90;;;;;;4890839;29;20041;-72
2023/05/09 07:25:09;;;;;;;18.83;14.55;;;18.90;99.90;;;;;;4890869;29;20041;-72
2023/05/09 07:27:35;;;;;;;20.15;15.38;;;19.30;99.90;;;;;;4890688;29;20033;-72
2023/05/09 07:30:03;;;;;;;19.08;15.15;;;19.30;99.90;;;;;;4891038;29;20037;-72
2023/05/09 07:32:29;;;;;;;17.48;13.68;;;19.60;99.90;;;;;;4890266;29;20037;-72
2023/05/09 07:34:54;;;;;;;17.55;14.68;;;19.70;99.90;;;;;;4890944;29;20025;-73
2023/05/09 07:37:20;;;;;;;18.10;14.18;;;19.70;99.90;;;;;;4872728;29;20149;-73
2023/05/09 07:39:46;;;;;;;18.83;14.35;;;19.90;99.90;;;;;;4872371;29;20042;-71
2023/05/09 07:42:12;;;;;;;18.42;13.60;;;20.10;99.90;;;;;;4872060;29;20056;-72
2023/05/09 07:44:38;;;;;;;20.80;14.65;;;20.20;99.90;;;;;;4880435;29;20028;-72
2023/05/09 07:47:04;;;;;;;17.45;13.10;;;20.30;99.90;;;;;;4890572;29;20104;-72
2023/05/09 07:49:31;;;;;;;20.08;13.93;;;20.40;99.90;;;;;;4890098;29;20036;-73
2023/05/09 07:51:56;;;;;;;18.27;13.48;;;20.40;99.90;;;;;;4881237;29;20069;-73
2023/05/09 07:54:22;;;;;;;17.42;12.98;;;20.40;99.90;;;;;;4871747;29;20038;-72
2023/05/09 07:56:48;;;;;;;20.95;14.02;;;20.30;99.90;;;;;;4872153;29;20074;-72
2023/05/09 07:59:14;;;;;;;18.05;12.70;;;20.20;99.90;;;;;;4876280;29;20029;-73
2023/05/09 08:01:40;;;;;;;15.48;11.50;;;20.20;99.90;;;;;;4887723;29;20048;-72
2023/05/09 08:04:07;;;;;;;16.77;13.57;;;20.20;99.90;;;;;;4890474;29;20037;-72
2023/05/09 08:06:33;;;;;;;15.83;12.77;;;20.10;99.90;;;;;;4890247;29;20045;-73
2023/05/09 08:08:59;;;;;;;15.32;12.23;;;20.30;99.90;;;;;;4889349;29;20207;-73
2023/05/09 08:11:25;;;;;;;17.48;13.30;;;20.50;99.90;;;;;;4889801;29;20029;-72
2023/05/09 08:13:51;;;;;;;17.52;12.63;;;20.30;99.70;;;;;;4875008;29;20033;-71
2023/05/09 08:16:17;;;;;;;14.43;11.35;;;20.30;99.90;;;;;;4876865;29;20052;-70
2023/05/09 08:18:43;;;;;;;16.98;12.43;;;20.20;99.80;;;;;;4875953;29;20021;-71
2023/05/09 08:21:08;;;;;;;19.70;13.32;;;20.10;99.90;;;;;;4890563;29;20077;-72
2023/05/09 08:23:34;;;;;;;17.88;12.70;;;20.10;99.90;;;;;;4889586;29;20028;-74
2023/05/09 08:26:00;;;;;;;15.20;11.48;;;20.00;99.90;;;;;;4889820;29;20033;-73
2023/05/09 08:28:29;;;;;;;16.13;12.02;;;20.00;99.90;;;;;;4877588;29;20049;-74
2023/05/09 08:30:56;;;;;;;;;;;19.90;99.90;;;;;;4871418;29;20057;-71
2023/05/09 08:33:21;;;;;;;15.23;11.85;;;19.90;99.90;;;;;;4871186;29;19916;-69
2023/05/09 08:35:53;;;;;;;16.38;12.30;;;20.10;99.90;;;;;;4871050;29;20034;-73
2023/05/09 08:38:19;;;;;;;15.35;11.98;;;20.20;99.90;;;;;;4854332;29;20030;-71
2023/05/09 08:40:45;;;;;;;16.33;11.15;;;20.10;99.90;;;;;;4871270;29;20040;-70
2023/05/09 08:43:12;;;;;;;15.52;12.07;;;20.30;99.80;;;;;;4871080;29;20029;-69
2023/05/09 08:45:53;;;;;;;15.52;11.98;;;20.30;99.30;;;;;;4870955;29;20033;-70
2023/05/09 08:48:20;;;;;;;15.52;11.82;;;20.50;99.40;;;;;;4870800;29;20044;-69
2023/05/09 08:50:46;;;;;;;14.48;10.65;;;20.70;98.90;;;;;;4870962;29;20049;-71
2023/05/09 08:53:13;;;;;;;13.23;10.52;;;21.00;98.80;;;;;;4871099;29;20033;-69
2023/05/09 08:55:38;;;;;;;14.75;11.18;;;21.20;98.60;;;;;;4871286;29;20057;-70
2023/05/09 08:58:05;;;;;;;14.98;11.73;;;21.30;98.40;;;;;;4880170;29;20037;-70
2023/05/09 09:00:32;;;;;;;15.48;11.60;;;21.30;97.70;;;;;;4873593;29;20049;-71
2023/05/09 09:03:00;;;;;;;13.70;10.80;;;21.50;97.50;;;;;;4870873;29;20074;-70
2023/05/09 09:05:29;;;;;;;15.57;11.85;;;21.90;97.60;;;;;;4870149;29;20045;-70
2023/05/09 09:07:56;;;;;;;14.20;10.40;;;22.20;96.70;;;;;;4870810;29;20072;-70
2023/05/09 09:10:24;;;;;;;11.95;9.73;;;22.40;96.10;;;;;;4880895;29;20346;-70
2023/05/09 09:12:53;;;;;;;13.20;10.45;;;22.90;96.10;;;;;;4889323;29;20040;-71
2023/05/09 09:15:18;;;;;;;;;;;22.70;95.60;;;;;;4883605;29;20034;-69
2023/05/09 09:17:49;;;;;;;13.38;10.85;;;22.80;95.60;;;;;;4879511;29;20153;-70
2023/05/09 09:20:17;;;;;;;12.52;9.18;;;22.80;95.20;;;;;;4885274;29;20045;-70
2023/05/09 09:22:46;;;;;;;12.70;9.47;;;22.80;95.30;;;;;;4888950;29;20036;-69
2023/05/09 09:25:12;;;;;;;11.30;9.07;;;22.80;95.00;;;;;;4889224;29;20454;-70
2023/05/09 09:27:37;;;;;;;11.75;8.85;;;22.80;95.10;;;;;;4888319;29;20092;-70
2023/05/09 09:30:10;;;;;;;11.90;9.70;;;22.90;95.30;;;;;;4889229;29;20077;-70
2023/05/09 09:32:38;;;;;;;13.55;10.07;;;22.90;94.80;;;;;;4888749;29;20033;-70
2023/05/09 09:35:09;;;;;;;12.07;9.80;;;22.80;94.60;;;;;;4889072;29;20334;-70
2023/05/09 09:37:39;;;;;;;12.63;8.00;;;22.70;94.70;;;;;;4888603;29;20029;-70
2023/05/09 09:40:09;;;;;;;12.85;8.50;;;22.90;95.10;;;;;;4888938;29;20052;-70
2023/05/09 09:42:42;;;;;;;9.65;7.38;;;23.00;95.00;;;;;;4874271;29;20041;-71
2023/05/09 09:45:13;;;;;;;9.93;8.13;;;23.20;94.80;;;;;;4869928;29;20108;-70
2023/05/09 09:47:41;;;;;;;10.73;7.80;;;23.40;94.00;;;;;;4870391;29;20335;-71
2023/05/09 09:50:11;;;;;;;;;;;23.60;94.20;;;;;;4870549;29;20342;-71
2023/05/09 09:52:47;;;;;;;10.32;8.70;;;23.40;94.10;;;;;;4869939;29;20203;-70
2023/05/09 09:55:13;;;;;;;12.05;9.85;;;22.90;94.10;;;;;;4869918;29;20135;-70
2023/05/09 09:57:42;;;;;;;12.18;9.38;;;22.70;94.70;;;;;;4876208;29;20099;-71
2023/05/09 10:00:08;;;;;;;12.57;9.77;;;22.50;95.20;;;;;;4888328;29;20306;-71
2023/05/09 10:02:45;;;;;;;11.05;9.68;;;22.50;95.20;;;;;;4887698;29;20057;-72
2023/05/09 10:05:11;;;;;;;10.20;8.93;;;22.50;95.60;;;;;;4888343;29;20052;-73
2023/05/09 10:07:37;;;;;;;10.95;8.55;;;23.10;94.80;;;;;;4888373;29;20045;-73
2023/05/09 10:10:04;;;;;;;13.80;10.38;;;23.50;94.50;;;;;;4888877;29;20033;-74
2023/05/09 10:12:36;;;;;;;13.18;9.57;;;23.50;94.40;;;;;;4888144;29;20025;-74
2023/05/09 10:15:07;;;;;;;10.73;8.90;;;23.80;93.80;;;;;;4888810;29;20049;-73
2023/05/09 10:17:34;;;;;;;13.80;11.45;;;23.80;93.70;;;;;;4888016;29;20043;-73
2023/05/09 10:20:04;;;;;;;11.25;9.50;;;23.70;93.20;;;;;;4888620;29;20041;-72
2023/05/09 10:22:36;;;;;;;11.95;10.20;;;23.90;93.50;;;;;;4888088;29;20041;-73
2023/05/09 10:25:05;;;;;;;12.95;9.60;;;24.00;93.00;;;;;;4888669;29;20089;-73
2023/05/09 10:27:35;;;;;;;11.63;9.50;;;24.00;93.20;;;;;;4887971;29;20041;-72
2023/05/09 10:30:16;;;;;;;10.60;9.05;;;24.10;92.60;;;;;;4888699;29;20104;-72
2023/05/09 10:32:53;;;;;;;11.07;8.50;;;24.50;92.20;;;;;;4888176;29;20033;-73
2023/05/09 10:35:26;;;;;;;10.97;8.77;;;25.10;91.90;;;;;;4888271;29;20045;-73
2023/05/09 10:37:58;;;;;;;10.57;8.35;;;25.10;90.50;;;;;;4889156;29;20452;-72
2023/05/09 10:40:24;;;;;;;11.30;8.70;;;25.10;90.70;;;;;;4891579;29;20067;-71
2023/05/09 10:42:50;;;;;;;9.50;8.48;;;25.00;90.90;;;;;;4875536;29;20039;-71
2023/05/09 10:45:16;;;;;;;10.10;8.32;;;24.70;90.90;;;;;;4891187;29;20029;-72
2023/05/09 10:47:43;;;;;;;12.23;8.70;;;24.90;90.90;;;;;;4896113;29;20098;-71
2023/05/09 10:50:13;;;;;;;11.93;8.63;;;25.10;90.70;;;;;;4910438;29;20036;-71
2023/05/09 10:53:07;;;;;;;11.05;7.40;;;25.20;89.80;;;;;;4910589;29;20064;-71
2023/05/09 10:55:38;;;;;;;11.52;8.90;;;25.10;90.50;;;;;;4909565;29;20068;-71
2023/05/09 10:58:18;;;;;;;8.98;7.95;;;25.20;90.20;;;;;;4910111;29;20365;-71
2023/05/09 11:00:45;;;;;;;12.73;9.30;;;25.20;90.60;;;;;;4893383;29;20104;-71
2023/05/09 11:03:10;;;;;;;10.95;8.65;;;25.30;90.20;;;;;;4891191;29;20049;-72
2023/05/09 11:05:40;;;;;;;10.27;8.02;;;25.40;90.10;;;;;;4890956;29;20036;-72
2023/05/09 11:08:22;;;;;;;9.13;6.90;;;25.20;89.50;;;;;;4891299;29;20037;-75
2023/05/09 11:10:48;;;;;;;11.05;8.55;;;25.10;89.80;;;;;;4884887;29;20057;-71
2023/05/09 11:13:22;;;;;;;9.88;7.60;;;25.40;89.80;;;;;;4900749;29;20040;-71
2023/05/09 11:16:09;;;;;;;10.07;7.15;;;25.40;88.80;;;;;;4910215;29;20024;-71
2023/05/09 11:18:49;;;;;;;8.70;7.00;;;25.70;89.00;;;;;;4909459;29;20048;-71
2023/05/09 11:21:15;;;;;;;10.68;7.80;;;25.90;88.90;;;;;;4890891;29;20104;-73
2023/05/09 11:23:41;;;;;;;10.77;7.72;;;25.80;88.50;;;;;;4891239;29;20093;-72
2023/05/09 11:26:08;;;;;;;10.63;7.10;;;25.80;88.60;;;;;;4890896;29;20137;-70
2023/05/09 11:28:37;;;;;;;9.18;6.63;;;26.30;88.80;;;;;;4890756;29;20378;-70
2023/05/09 11:31:14;;;;;;;9.90;6.72;;;26.50;88.70;;;;;;4891257;29;20052;-68
2023/05/09 11:33:41;;;;;;;7.88;6.25;;;26.90;87.90;;;;;;4891105;29;20072;-70
2023/05/09 11:36:32;;;;;;;8.23;5.63;;;27.30;84.70;;;;;;4891099;29;20072;-68
2023/05/09 11:39:08;;;;;;;6.82;5.50;;;27.70;84.50;;;;;;4890760;29;20036;-68
2023/05/09 11:41:43;;;;;;;7.25;5.82;;;27.90;81.80;;;;;;4890513;29;20084;-68
2023/05/09 11:44:19;;;;;;;7.13;5.65;;;28.20;81.50;;;;;;4890686;29;20055;-70
2023/05/09 11:46:46;;;;;;;6.40;4.65;;;28.40;81.10;;;;;;4890996;29;20041;-70
2023/05/09 11:49:12;;;;;;;5.90;4.78;;;28.60;80.30;;;;;;4890287;29;20052;-70
2023/05/09 11:51:38;;;;;;;6.25;4.82;;;29.00;78.90;;;;;;4890256;29;20039;-70
2023/05/09 11:54:06;;;;;;;7.25;5.07;;;29.00;79.90;;;;;;4890282;29;20092;-70
2023/05/09 11:56:33;;;;;;;5.37;4.50;;;28.70;79.20;;;;;;4890059;29;20060;-70
2023/05/09 11:58:59;;;;;;;5.65;3.72;;;28.90;79.70;;;;;;4898853;29;20492;-68
2023/05/09 12:01:25;;;;;;;4.88;4.00;;;29.60;78.50;;;;;;4902902;29;20314;-69
2023/05/09 12:03:51;;;;;;;5.45;3.65;;;30.10;77.90;;;;;;4894361;29;20032;-70
2023/05/09 12:06:18;;;;;;;4.13;3.50;;;31.00;75.50;;;;;;4897567;29;20350;-69
2023/05/09 12:08:47;;;;;;;5.03;2.90;;;30.30;75.00;;;;;;4894980;29;20223;-70
2023/05/09 12:11:13;;;;;;;4.05;3.00;;;30.30;75.40;;;;;;4899616;29;20073;-69
2023/05/09 12:13:51;;;;;;;4.68;3.30;;;30.40;75.40;;;;;;4904359;29;20016;-69
2023/05/09 12:16:18;;;;;;;4.90;3.53;;;29.80;75.20;;;;;;4897636;29;20044;-69
2023/05/09 12:18:49;;;;;;;4.67;3.20;;;30.30;74.60;;;;;;4907926;29;20032;-70
2023/05/09 12:21:19;;;;;;;6.03;3.00;;;29.90;74.90;;;;;;4889783;29;20041;-69
2023/05/09 12:23:45;;;;;;;4.93;2.97;;;30.30;74.90;;;;;;4890390;29;20048;-68
2023/05/09 12:26:11;;;;;;;6.93;3.25;;;30.40;74.30;;;;;;4903061;29;20103;-70
2023/05/09 12:28:38;;;;;;;4.00;2.88;;;30.60;73.50;;;;;;4908537;29;20024;-70
2023/05/09 12:31:05;;;;;;;4.72;2.80;;;30.40;73.30;;;;;;4908799;29;20271;-70
2023/05/09 12:33:31;;;;;;;6.70;2.95;;;30.40;72.80;;;;;;4908114;29;20036;-70
2023/05/09 12:36:04;;;;;;;3.47;2.90;;;30.10;73.80;;;;;;4908380;29;20364;-69
2023/05/09 12:38:30;;;;;;;3.53;2.70;;;30.10;73.40;;;;;;4908110;29;20056;-68
2023/05/09 12:41:00;;;;;;;4.53;2.78;;;29.80;74.50;;;;;;4908312;29;20044;-70
2023/05/09 12:43:29;;;;;;;3.13;2.60;;;28.80;75.80;;;;;;4907957;29;20040;-70
2023/05/09 12:45:56;;;;;;;4.70;2.55;;;28.20;76.50;;;;;;4908151;29;20331;-70
2023/05/09 12:48:23;;;;;;;3.08;2.30;;;28.40;76.70;;;;;;4907484;29;20322;-70
2023/05/09 12:50:48;;;;;;;3.05;2.33;;;28.90;75.00;;;;;;4908248;29;20041;-70
2023/05/09 12:53:23;;;;;;;4.50;2.08;;;28.60;76.30;;;;;;4907659;29;20027;-70
2023/05/09 12:55:50;;;;;;;3.67;2.10;;;28.80;75.30;;;;;;4908060;29;20048;-69
2023/05/09 12:58:15;;;;;;;3.47;2.30;;;28.50;75.10;;;;;;4907779;29;20031;-68
2023/05/09 13:00:43;;;;;;;4.53;2.05;;;28.60;75.90;;;;;;4892448;29;20349;-69
2023/05/09 13:03:26;;;;;;;3.67;1.92;;;28.80;73.90;;;;;;4888870;29;20049;-69
2023/05/09 13:06:00;;;;;;;3.03;1.83;;;28.70;73.60;;;;;;4888977;29;20037;-69
2023/05/09 13:08:28;;;;;;;2.17;1.63;;;29.20;73.80;;;;;;4888376;29;20196;-69
2023/05/09 13:10:54;;;;;;;3.33;1.90;;;29.30;74.00;;;;;;4898542;29;20315;-69
2023/05/09 13:13:21;;;;;;;3.35;1.70;;;29.90;72.20;;;;;;4887403;29;20045;-70
2023/05/09 13:15:47;;;;;;;2.45;1.52;;;29.90;72.90;;;;;;4905411;29;20068;-68
2023/05/09 13:18:13;;;;;;;2.95;1.30;;;30.30;70.50;;;;;;4907199;29;20255;-68
2023/05/09 13:20:39;;;;;;;2.13;1.20;;;30.30;69.00;;;;;;4891349;29;20199;-69
2023/05/09 13:23:05;;;;;;;3.88;1.10;;;29.20;70.60;;;;;;4888710;29;20024;-69
2023/05/09 13:25:30;;;;;;;1.88;1.23;;;29.00;70.80;;;;;;4888412;29;20108;-70
2023/05/09 13:27:56;;;;;;;1.83;1.20;;;28.30;72.30;;;;;;4888738;29;20084;-70
2023/05/09 13:30:22;;;;;;;4.80;2.00;;;28.00;73.50;;;;;;4888149;29;20036;-69
2023/05/09 13:32:47;;;;;;;2.67;1.50;;;27.70;73.60;;;;;;4889020;29;20080;-68
2023/05/09 13:35:14;;;;;;;2.53;1.40;;;27.20;75.00;;;;;;4888317;29;20040;-69
2023/05/09 13:37:40;;;;;;;3.00;1.35;;;27.00;74.70;;;;;;4888852;29;20041;-69
2023/05/09 13:40:06;;;;;;;3.25;1.50;;;26.40;75.20;;;;;;4888808;29;20035;-69
2023/05/09 13:42:33;;;;;;;4.72;1.50;;;26.00;75.90;;;;;;4888571;29;20036;-71
2023/05/09 13:44:59;;;;;;;5.05;1.60;;;25.90;76.80;;;;;;4888836;29;20092;-70
2023/05/09 13:47:25;;;;;;;3.35;1.48;;;25.80;77.10;;;;;;4888386;29;20100;-70
2023/05/09 13:49:51;;;;;;;2.75;1.60;;;25.70;78.00;;;;;;4872245;29;20041;-69
2023/05/09 13:52:17;;;;;;;2.15;1.50;;;25.70;78.30;;;;;;4871725;29;20123;-70
2023/05/09 13:54:43;;;;;;;3.97;1.50;;;25.60;78.20;;;;;;4888983;29;20053;-69
2023/05/09 13:57:09;;;;;;;3.78;1.73;;;25.80;77.30;;;;;;4890864;29;20037;-70
2023/05/09 13:59:35;;;;;;;4.85;1.92;;;25.60;77.40;;;;;;4899903;29;20077;-68
2023/05/09 14:02:01;;;;;;;4.03;1.40;;;25.80;77.90;;;;;;4888171;29;20093;-70
2023/05/09 14:04:28;;;;;;;2.88;1.50;;;26.10;78.40;;;;;;4888062;29;20061;-70
2023/05/09 14:06:57;;;;;;;2.42;1.70;;;26.20;76.80;;;;;;4888527;29;20036;-69
2023/05/09 14:09:23;;;;;;;3.90;1.50;;;26.00;75.90;;;;;;4890779;29;20040;-68
2023/05/09 14:11:50;;;;;;;2.67;1.60;;;25.70;77.70;;;;;;4895054;29;20104;-70
2023/05/09 14:14:20;;;;;;;3.05;1.30;;;25.60;78.90;;;;;;4908219;29;20039;-70
2023/05/09 14:16:47;;;;;;;3.90;1.77;;;25.30;77.70;;;;;;4911487;29;20055;-70
2023/05/09 14:19:16;;;;;;;4.80;1.80;;;25.10;78.40;;;;;;4905911;29;20315;-70
2023/05/09 14:21:43;;;;;;;3.50;2.05;;;24.90;80.00;;;;;;4892433;29;20040;-70
2023/05/09 14:24:11;;;;;;;2.83;1.48;;;24.90;79.80;;;;;;4892392;29;20187;-69
2023/05/09 14:26:37;;;;;;;4.35;1.38;;;24.70;80.50;;;;;;4892065;29;20104;-70
2023/05/09 14:29:03;;;;;;;3.33;1.42;;;24.40;79.90;;;;;;4891984;29;20066;-69
2023/05/09 14:31:29;;;;;;;4.70;1.48;;;24.10;82.20;;;;;;4892095;29;20037;-69
2023/05/09 14:33:55;;;;;;;3.13;1.60;;;24.00;83.20;;;;;;4892291;29;20367;-71
2023/05/09 14:36:21;;;;;;;2.65;1.40;;;24.00;82.50;;;;;;4891640;29;20077;-71
2023/05/09 14:38:47;;;;;;;4.93;1.40;;;23.50;84.90;;;;;;4891890;29;20040;-70
2023/05/09 14:41:13;;;;;;;4.25;1.80;;;23.40;85.80;;;;;;4875666;29;20303;-70
2023/05/09 14:43:39;;;;;;;3.40;1.60;;;23.20;87.20;;;;;;4891902;29;20045;-69
2023/05/09 14:46:05;;;;;;;3.28;1.23;;;23.20;88.50;;;;;;4891868;29;20382;-72
2023/05/09 14:48:31;;;;;;;2.45;1.00;;;22.90;87.20;;;;;;4891577;29;20122;-70
2023/05/09 14:50:57;;;;;;;2.63;1.10;;;22.60;87.70;;;;;;4891818;29;20044;-70
2023/05/09 14:53:23;;;;;;;1.48;0.80;;;22.60;90.10;;;;;;4891588;29;20037;-70
2023/05/09 14:55:50;;;;;;;2.30;0.90;;;22.60;88.40;;;;;;4891736;29;20100;-69
2023/05/09 14:58:16;;;;;;;4.88;0.70;;;22.60;89.00;;;;;;4902055;29;20048;-71
2023/05/09 15:00:44;;;;;;;2.20;1.20;;;22.70;87.60;;;;;;4910409;29;20039;-71
2023/05/09 15:03:10;;;;;;;2.75;0.60;;;22.90;88.10;;;;;;4901491;29;20053;-71
2023/05/09 15:05:37;;;;;;;2.72;0.77;;;23.30;87.90;;;;;;4897721;29;20215;-72
2023/05/09 15:08:03;;;;;;;3.28;1.10;;;23.90;85.90;;;;;;4895409;29;20273;-72
2023/05/09 15:10:28;;;;;;;2.95;0.73;;;24.30;85.00;;;;;;4901501;29;20033;-71
2023/05/09 15:12:55;;;;;;;1.33;0.50;;;24.80;83.70;;;;;;4902154;29;20041;-73
2023/05/09 15:15:22;;;;;;;1.30;0.50;;;25.20;80.30;;;;;;4890663;29;20120;-72
2023/05/09 15:17:49;;;;;;;2.05;0.60;;;25.20;79.00;;;;;;4891411;29;20040;-70
2023/05/09 15:20:18;;;;;;;2.58;0.52;;;25.70;78.50;;;;;;4894053;29;20048;-70
2023/05/09 15:22:47;;;;;;;1.10;0.50;;;26.50;78.40;;;;;;4897785;29;20203;-72
2023/05/09 15:25:14;;;;;;;1.30;0.57;;;26.70;76.50;;;;;;4880513;29;20048;-70
2023/05/09 15:27:40;;;;;;;1.90;0.63;;;26.90;76.50;;;;;;4891103;29;20374;-71
2023/05/09 15:30:06;;;;;;;2.63;0.80;;;26.50;76.10;;;;;;4891106;29;20037;-71
2023/05/09 15:32:33;;;;;;;2.28;0.80;;;26.10;76.80;;;;;;4890468;29;20243;-71
2023/05/09 15:34:59;;;;;;;1.75;0.52;;;25.70;77.80;;;;;;4891409;29;20039;-72
2023/05/09 15:37:24;;;;;;;3.80;1.33;;;25.40;78.50;;;;;;4890619;29;20061;-71
2023/05/09 15:39:51;;;;;;;1.45;0.70;;;25.30;79.10;;;;;;4890770;29;20353;-71
2023/05/09 15:42:17;;;;;;;2.85;0.80;;;25.20;79.80;;;;;;4890209;29;20048;-71
2023/05/09 15:44:43;;;;;;;2.00;0.80;;;25.00;80.80;;;;;;4890824;29;20307;-71
2023/05/09 15:47:09;;;;;;;3.47;1.00;;;24.90;82.10;;;;;;4890872;29;20041;-71
2023/05/09 15:49:35;;;;;;;5.32;1.25;;;24.50;82.70;;;;;;4890689;29;20032;-71
2023/05/09 15:52:02;;;;;;;2.53;0.80;;;24.40;82.70;;;;;;4891009;29;20025;-71
2023/05/09 15:54:30;;;;;;;1.60;0.68;;;24.10;82.10;;;;;;4889954;29;20045;-70
2023/05/09 15:56:56;;;;;;;5.27;1.10;;;23.90;81.70;;;;;;4890889;29;20084;-73
2023/05/09 15:59:22;;;;;;;3.03;0.90;;;23.80;83.20;;;;;;4890286;29;20449;-72
2023/05/09 16:01:47;;;;;;;2.13;0.88;;;23.70;84.80;;;;;;4890682;29;20045;-70
2023/05/09 16:04:13;;;;;;;2.05;1.05;;;23.60;86.00;;;;;;4894934;29;20041;-71
2023/05/09 16:06:39;;;;;;;2.40;1.10;;;23.30;86.40;;;;;;4898486;29;20099;-70
2023/05/09 16:09:05;;;;;;;2.60;1.05;;;23.10;87.30;;;;;;4891158;29;20045;-70
2023/05/09 16:11:32;;;;;;;3.28;1.00;;;23.00;88.30;;;;;;4899213;29;20044;-70
2023/05/09 16:13:58;;;;;;;2.58;1.10;;;22.90;88.20;;;;;;4905955;29;20044;-70
2023/05/09 16:16:24;;;;;;;4.15;1.25;;;22.80;88.40;;;;;;4908677;29;20103;-71
2023/05/09 16:18:50;;;;;;;7.40;2.25;;;22.70;89.30;;;;;;4907353;29;20326;-70
2023/05/09 16:21:17;;;;;;;6.45;2.38;;;22.50;90.30;;;;;;4889910;29;20060;-70
2023/05/09 16:23:44;;;;;;;6.10;2.63;;;22.40;90.90;;;;;;4903243;29;20103;-71
2023/05/09 16:26:10;;;;;;;5.55;2.33;;;22.30;91.30;;;;;;4873505;29;20311;-70
2023/05/09 16:28:38;;;;;;;5.50;2.05;;;22.20;91.50;;;;;;4889512;29;20041;-69
2023/05/09 16:31:07;;;;;;;3.47;1.90;;;22.00;94.00;;;;;;4890396;29;20048;-70
2023/05/09 16:33:33;;;;;;;4.97;2.00;;;21.90;94.80;;;;;;4889357;29;20302;-70
2023/05/09 16:35:59;;;;;;;3.65;1.50;;;21.90;95.10;;;;;;4889199;29;20267;-71
2023/05/09 16:38:25;;;;;;;3.65;1.30;;;21.80;94.60;;;;;;4889452;29;20238;-71
2023/05/09 16:40:51;;;;;;;2.55;1.10;;;21.80;94.40;;;;;;4889678;29;20096;-70
2023/05/09 16:43:18;;;;;;;2.60;1.20;;;21.70;93.80;;;;;;4889427;29;20104;-70
2023/05/09 16:45:46;;;;;;;2.72;1.08;;;21.80;93.30;;;;;;4889736;29;20045;-71
2023/05/09 16:48:16;;;;;;;4.72;1.60;;;21.70;93.90;;;;;;4889713;29;20040;-70
2023/05/09 16:50:44;;;;;;;4.40;1.80;;;21.60;94.60;;;;;;4889844;29;20041;-70
2023/05/09 16:53:13;;;;;;;4.32;2.03;;;21.30;96.20;;;;;;4889503;29;20065;-71
2023/05/09 16:55:39;;;;;;;4.95;2.20;;;21.10;96.80;;;;;;4896291;29;20036;-69
2023/05/09 16:58:07;;;;;;;4.05;1.50;;;21.00;97.40;;;;;;4906574;29;20059;-70
2023/05/09 17:00:35;;;;;;;3.35;1.90;;;21.00;97.20;;;;;;4893826;29;20276;-70
2023/05/09 17:03:00;;;;;;;3.35;2.08;;;20.90;97.80;;;;;;4895422;29;20326;-70
2023/05/09 17:05:26;;;;;;;4.30;1.60;;;20.80;98.10;;;;;;4894845;29;20041;-69
2023/05/09 17:07:51;;;;;;;4.35;1.70;;;20.80;98.10;;;;;;4907951;29;20076;-69
2023/05/09 17:10:17;;;;;;;5.25;1.75;;;20.70;98.00;;;;;;4890941;29;20071;-71
2023/05/09 17:12:43;;;;;;;4.53;1.90;;;20.70;98.10;;;;;;4897891;29;20032;-71
2023/05/09 17:15:10;;;;;;;5.43;2.03;;;20.80;98.30;;;;;;4889205;29;20037;-69
2023/05/09 17:17:36;;;;;;;5.93;2.22;;;20.80;98.40;;;;;;4888502;29;20021;-71
2023/05/09 17:20:03;;;;;;;4.68;2.13;;;20.70;98.90;;;;;;4891633;29;20029;-70
2023/05/09 17:22:29;;;;;;;4.95;2.13;;;20.70;99.20;;;;;;4904872;29;20079;-71
2023/05/09 17:24:55;;;;;;;4.38;2.35;;;20.60;99.10;;;;;;4907402;29;20295;-71
2023/05/09 17:27:21;;;;;;;7.10;3.67;;;20.50;99.40;;;;;;4907063;29;20108;-71
2023/05/09 17:29:46;;;;;;;6.43;3.22;;;20.40;99.70;;;;;;4900938;29;20028;-71
2023/05/09 17:32:12;;;;;;;8.10;4.38;;;20.30;99.90;;;;;;4907793;29;20033;-70
2023/05/09 17:34:39;;;;;;;8.35;4.80;;;20.20;99.90;;;;;;4907147;29;20092;-71
2023/05/09 17:37:06;;;;;;;9.07;4.07;;;20.00;99.90;;;;;;4907481;29;20108;-72
2023/05/09 17:39:31;;;;;;;4.82;2.90;;;19.60;99.90;;;;;;4907558;29;20080;-71
2023/05/09 17:41:57;;;;;;;5.45;2.45;;;19.30;99.90;;;;;;4891088;29;20088;-71
2023/05/09 17:44:23;;;;;;;6.70;2.33;;;19.00;99.90;;;;;;4907245;29;20036;-70